Milingimbi, Australia
Current Conditions -  °F | °C
As of 5:30 PM on Sunday 26 Oct 2014 (Local Time) from YPGV Reporting Station
Few Clouds Few Clouds  
Wind Chill: 81°   Ceiling: Unl
Heat Index: 83°   Visibility: 6mi
Dew Point: 68°   Wind: 10mph
Humidity: 65%   Direction: 90°E
Pressure: 29.85"   Gusts: NA
Location:  12.09°S, 134.89°E
Report Text: YPGV 260830Z 09009KT 9999 FEW028 27/20 Q1011
Loading
Personal Weather Stations






























Interactive Weather Map
Tropical Storm Tracking
New forecast layout! Learn more

10-Day Weather Forecast

Advertisements
Track Severe Weather on mobile